Terminal Aerodrome Forecast
Issued by NWS Memphis, TN

Home | Current Version | Previous Version | Text Only | Print | Product List | Glossary On
Versions: 1 2 3 4 5 6 7 8 9 10 11 12 13 14 15
755
FTUS44 KMEG 251732
TAFMKL
TAF
KMKL 251732Z 2518/2618 31010G16KT P6SM SKC
     FM252100 31008KT P6SM SKC
     FM260000 00000KT P6SM SKC
     FM261500 14008KT P6SM SCT250=

USA.gov is the U.S. government's official web portal to all federal, state and local government web resources and services.